Time;durP1;ratioP1;P1;durP2;ratioP2;P2;SDS_P1;SDS_P2;PMS_P1;PMS_P2;Temp;Humidity;BMP_temperature;BMP_pressure;BME280_temperature;BME280_humidity;BME280_pressure;Samples;Min_cycle;Max_cycle;Signal;HPM_P1;HPM_P2
2022/03/11 00:02:47;;;;;;;34.58;13.98;;;;;;;;;;10309726;28;20110;-68
2022/03/11 00:07:50;;;;;;;30.67;13.50;;;;;;;;;;10310055;28;20059;-68
2022/03/11 00:12:52;;;;;;;29.33;13.48;;;;;;;;;;10310158;28;20042;-68
2022/03/11 00:17:56;;;;;;;26.38;12.52;;;;;;;;;;10310712;28;20330;-67
2022/03/11 00:22:59;;;;;;;32.83;13.40;;;;;;;;;;10309557;28;20050;-68
2022/03/11 00:28:01;;;;;;;50.05;17.00;;;;;;;;;;10310034;28;20068;-66
2022/03/11 00:33:07;;;;;;;70.82;19.42;;;;;;;;;;10310641;28;20039;-68
2022/03/11 00:38:10;;;;;;;43.47;15.73;;;;;;;;;;10309363;28;20059;-67
2022/03/11 00:43:12;;;;;;;45.90;15.50;;;;;;;;;;10311302;28;20138;-67
2022/03/11 00:48:16;;;;;;;36.40;14.30;;;;;;;;;;10310129;28;20058;-68
2022/03/11 00:53:18;;;;;;;38.30;14.95;;;;;;;;;;10309442;28;20285;-67
2022/03/11 00:58:20;;;;;;;34.63;14.43;;;;;;;;;;10312543;28;20055;-67
2022/03/11 01:03:24;;;;;;;26.63;12.55;;;;;;;;;;10287477;28;20051;-68
2022/03/11 01:08:26;;;;;;;30.77;13.35;;;;;;;;;;10297206;28;20055;-68
2022/03/11 01:13:28;;;;;;;29.73;12.75;;;;;;;;;;10317858;28;20054;-67
2022/03/11 01:18:32;;;;;;;28.38;13.40;;;;;;;;;;10317130;28;20237;-67
2022/03/11 01:23:35;;;;;;;31.73;14.15;;;;;;;;;;10317017;28;20066;-67
2022/03/11 01:28:39;;;;;;;36.58;13.25;;;;;;;;;;10316625;28;20047;-67
2022/03/11 01:33:44;;;;;;;30.73;12.88;;;;;;;;;;10315173;28;20338;-68
2022/03/11 01:38:46;;;;;;;33.43;14.60;;;;;;;;;;10315416;28;20065;-68
2022/03/11 01:43:53;;;;;;;31.55;14.55;;;;;;;;;;10316435;28;20042;-68
2022/03/11 01:48:57;;;;;;;28.80;13.70;;;;;;;;;;10315369;28;20047;-67
2022/03/11 01:53:59;;;;;;;35.03;13.98;;;;;;;;;;10316637;28;20269;-68
2022/03/11 01:59:02;;;;;;;24.42;12.70;;;;;;;;;;10315670;28;20133;-68
2022/03/11 02:04:06;;;;;;;30.42;13.60;;;;;;;;;;10315668;28;20058;-68
2022/03/11 02:09:08;;;;;;;31.90;14.23;;;;;;;;;;10313082;28;20055;-68
2022/03/11 02:14:10;;;;;;;29.42;13.32;;;;;;;;;;10314894;28;20057;-68
2022/03/11 02:19:14;;;;;;;31.10;14.38;;;;;;;;;;10314729;28;20062;-67
2022/03/11 02:24:19;;;;;;;31.30;14.10;;;;;;;;;;10314023;28;20353;-68
2022/03/11 02:29:22;;;;;;;36.17;14.60;;;;;;;;;;10313557;28;20343;-68
2022/03/11 02:34:24;;;;;;;33.60;15.45;;;;;;;;;;10313956;28;20097;-67
2022/03/11 02:39:28;;;;;;;36.50;14.98;;;;;;;;;;10312973;28;20235;-67
2022/03/11 02:44:31;;;;;;;34.97;15.23;;;;;;;;;;10314290;28;20042;-66
2022/03/11 02:49:33;;;;;;;30.33;13.98;;;;;;;;;;10313608;28;20055;-67
2022/03/11 02:54:37;;;;;;;35.65;15.02;;;;;;;;;;10313931;28;20215;-68
2022/03/11 02:59:39;;;;;;;35.90;15.52;;;;;;;;;;10313965;28;20055;-67
2022/03/11 03:04:43;;;;;;;32.90;15.50;;;;;;;;;;10312922;28;20050;-68
2022/03/11 03:09:46;;;;;;;35.33;15.35;;;;;;;;;;10311758;28;20047;-67
2022/03/11 03:14:48;;;;;;;40.42;15.98;;;;;;;;;;10313019;28;20061;-67
2022/03/11 03:19:51;;;;;;;41.55;15.80;;;;;;;;;;10311870;28;20051;-68
2022/03/11 03:24:55;;;;;;;35.42;14.48;;;;;;;;;;10311482;28;20051;-68
2022/03/11 03:29:58;;;;;;;36.00;16.30;;;;;;;;;;10311463;28;20376;-67
2022/03/11 03:35:00;;;;;;;38.58;15.80;;;;;;;;;;10310976;28;20296;-67
2022/03/11 03:40:05;;;;;;;37.15;16.50;;;;;;;;;;10311096;28;20067;-67
2022/03/11 03:45:08;;;;;;;38.42;16.13;;;;;;;;;;10312240;28;20058;-67
2022/03/11 03:50:11;;;;;;;35.35;14.77;;;;;;;;;;10311403;28;20062;-68
2022/03/11 03:55:15;;;;;;;39.58;17.08;;;;;;;;;;10311563;28;20043;-68
2022/03/11 04:00:17;;;;;;;39.30;17.27;;;;;;;;;;10311939;28;20054;-68
2022/03/11 04:05:20;;;;;;;39.80;15.68;;;;;;;;;;10310624;28;20055;-67
2022/03/11 04:10:24;;;;;;;37.47;15.63;;;;;;;;;;10310243;28;20392;-67
2022/03/11 04:15:26;;;;;;;35.95;15.73;;;;;;;;;;10311143;28;20058;-67
2022/03/11 04:20:28;;;;;;;38.47;16.25;;;;;;;;;;10294215;28;20055;-68
2022/03/11 04:25:33;;;;;;;39.22;17.27;;;;;;;;;;10310535;28;20043;-68
2022/03/11 04:30:35;;;;;;;34.80;16.02;;;;;;;;;;10310840;28;20051;-67
2022/03/11 04:35:37;;;;;;;60.80;21.05;;;;;;;;;;10314945;28;20052;-66
2022/03/11 04:40:42;;;;;;;67.68;21.52;;;;;;;;;;10318966;28;20058;-66
2022/03/11 04:45:44;;;;;;;42.80;17.27;;;;;;;;;;10318192;28;20049;-68
2022/03/11 04:50:46;;;;;;;51.15;19.25;;;;;;;;;;10317481;28;20066;-68
2022/03/11 04:55:50;;;;;;;38.88;16.33;;;;;;;;;;10317181;28;20042;-67
2022/03/11 05:00:53;;;;;;;46.63;17.40;;;;;;;;;;10316174;28;20068;-68
2022/03/11 05:05:55;;;;;;;40.83;15.68;;;;;;;;;;10315828;28;20066;-68
2022/03/11 05:10:59;;;;;;;34.90;16.48;;;;;;;;;;10315593;28;20097;-67
2022/03/11 05:16:01;;;;;;;36.60;15.15;;;;;;;;;;10315643;28;20078;-66
2022/03/11 05:21:04;;;;;;;38.15;17.25;;;;;;;;;;10315934;28;20140;-69
2022/03/11 05:26:24;;;;;;;35.90;15.93;;;;;;;;;;10310655;28;20110;-68
2022/03/11 05:31:27;;;;;;;49.63;21.58;;;;;;;;;;10315633;28;20062;-68
2022/03/11 05:36:30;;;;;;;65.53;24.58;;;;;;;;;;10315246;28;20082;-68
2022/03/11 05:41:34;;;;;;;48.53;19.75;;;;;;;;;;10315858;28;20066;-67
2022/03/11 05:46:36;;;;;;;50.85;23.40;;;;;;;;;;10313814;28;20054;-69
2022/03/11 05:51:39;;;;;;;54.35;22.35;;;;;;;;;;10315455;28;20341;-67
2022/03/11 05:56:42;;;;;;;33.95;16.30;;;;;;;;;;10314582;28;20242;-68
2022/03/11 06:01:45;;;;;;;35.17;16.55;;;;;;;;;;10313299;28;20062;-68
2022/03/11 06:06:47;;;;;;;45.85;20.52;;;;;;;;;;10315583;28;20059;-70
2022/03/11 06:11:53;;;;;;;30.08;16.75;;;;;;;;;;10312926;28;20050;-67
2022/03/11 06:16:55;;;;;;;32.20;17.50;;;;;;;;;;10327644;28;20039;-70
2022/03/11 06:21:59;;;;;;;31.15;16.95;;;;;;;;;;10315561;28;20226;-69
2022/03/11 06:27:04;;;;;;;27.17;16.55;;;;;;;;;;10313943;28;20074;-69
2022/03/11 06:32:07;;;;;;;21.33;13.25;;;;;;;;;;10313140;28;20054;-68
2022/03/11 06:37:09;;;;;;;25.10;13.40;;;;;;;;;;10312424;28;20054;-67
2022/03/11 06:42:13;;;;;;;20.42;12.82;;;;;;;;;;10312426;28;20062;-68
2022/03/11 06:47:15;;;;;;;20.98;12.30;;;;;;;;;;10312693;28;20063;-68
2022/03/11 06:52:17;;;;;;;28.02;13.88;;;;;;;;;;10312949;28;20334;-68
2022/03/11 06:57:21;;;;;;;18.00;12.07;;;;;;;;;;10311699;28;20101;-68
2022/03/11 07:02:23;;;;;;;19.80;11.77;;;;;;;;;;10312111;28;20050;-67
2022/03/11 07:07:30;;;;;;;19.05;12.07;;;;;;;;;;10313077;28;20051;-69
2022/03/11 07:12:33;;;;;;;19.65;10.90;;;;;;;;;;10323898;28;20042;-68
2022/03/11 07:17:36;;;;;;;15.65;10.95;;;;;;;;;;10311731;28;20042;-68
2022/03/11 07:22:39;;;;;;;14.80;10.27;;;;;;;;;;10310445;28;20051;-68
2022/03/11 07:27:45;;;;;;;17.48;10.50;;;;;;;;;;10311282;28;20066;-69
2022/03/11 07:32:50;;;;;;;16.90;10.50;;;;;;;;;;10311608;28;20051;-69
2022/03/11 07:37:52;;;;;;;16.67;11.13;;;;;;;;;;10312264;28;20062;-67
2022/03/11 07:42:56;;;;;;;19.90;10.80;;;;;;;;;;10309397;28;20093;-68
2022/03/11 07:47:58;;;;;;;15.38;10.02;;;;;;;;;;10309909;28;20050;-67
2022/03/11 07:53:01;;;;;;;12.80;9.68;;;;;;;;;;10309228;28;20047;-69
2022/03/11 07:58:05;;;;;;;12.95;8.52;;;;;;;;;;10310323;28;20074;-69
2022/03/11 08:03:07;;;;;;;11.07;7.93;;;;;;;;;;10314268;28;20113;-69
2022/03/11 08:08:09;;;;;;;12.43;8.15;;;;;;;;;;10315113;28;20254;-68
2022/03/11 08:13:13;;;;;;;15.30;8.80;;;;;;;;;;10322527;28;20051;-69
2022/03/11 08:18:16;;;;;;;14.20;11.05;;;;;;;;;;10331662;28;20038;-69
2022/03/11 08:23:18;;;;;;;14.02;8.20;;;;;;;;;;10323254;28;20050;-68
2022/03/11 08:28:23;;;;;;;9.55;7.22;;;;;;;;;;10322351;28;20050;-69
2022/03/11 08:33:30;;;;;;;9.30;5.55;;;;;;;;;;10322438;28;20042;-69
2022/03/11 08:38:33;;;;;;;10.18;7.80;;;;;;;;;;10322872;28;20055;-71
2022/03/11 08:43:38;;;;;;;15.50;10.27;;;;;;;;;;10321678;28;20058;-68
2022/03/11 08:48:43;;;;;;;16.40;9.15;;;;;;;;;;10334805;28;20043;-68
2022/03/11 08:53:45;;;;;;;13.75;7.43;;;;;;;;;;10322442;28;20059;-68
2022/03/11 08:58:50;;;;;;;17.38;8.10;;;;;;;;;;10322310;28;20047;-69
2022/03/11 09:03:52;;;;;;;13.35;10.05;;;;;;;;;;10314268;28;20038;-68
2022/03/11 09:08:54;;;;;;;15.65;8.07;;;;;;;;;;10323215;28;20154;-67
2022/03/11 09:13:58;;;;;;;11.10;6.07;;;;;;;;;;10322734;28;20233;-68
2022/03/11 09:19:01;;;;;;;12.82;7.88;;;;;;;;;;10319588;28;20043;-69
2022/03/11 09:24:03;;;;;;;16.55;8.93;;;;;;;;;;10314532;28;20054;-69
2022/03/11 09:29:07;;;;;;;16.15;7.15;;;;;;;;;;10316756;28;20328;-66
2022/03/11 09:34:10;;;;;;;19.08;7.82;;;;;;;;;;10290604;28;20055;-67
2022/03/11 09:39:12;;;;;;;25.00;9.90;;;;;;;;;;10309826;28;20058;-66
2022/03/11 09:44:17;;;;;;;27.10;8.70;;;;;;;;;;10312882;28;20052;-66
2022/03/11 09:49:19;;;;;;;20.85;8.52;;;;;;;;;;10315337;28;20055;-68
2022/03/11 09:54:22;;;;;;;19.50;8.48;;;;;;;;;;10315102;28;20062;-67
2022/03/11 09:59:26;;;;;;;31.00;11.38;;;;;;;;;;10315485;28;20050;-67
2022/03/11 10:04:29;;;;;;;21.70;9.48;;;;;;;;;;10314895;28;20058;-66
2022/03/11 10:09:33;;;;;;;28.23;11.15;;;;;;;;;;10314982;28;20081;-69
2022/03/11 10:14:38;;;;;;;11.25;6.35;;;;;;;;;;10298884;28;20266;-68
2022/03/11 10:19:54;;;;;;;13.53;6.80;;;;;;;;;;10315299;28;20054;-70
2022/03/11 10:24:57;;;;;;;13.05;6.93;;;;;;;;;;10326993;28;20047;-66
2022/03/11 10:30:16;;;;;;;11.32;6.88;;;;;;;;;;10314340;28;20051;-68
2022/03/11 10:35:19;;;;;;;10.40;6.40;;;;;;;;;;10322006;28;20168;-67
2022/03/11 10:40:22;;;;;;;13.50;6.78;;;;;;;;;;10311786;28;20054;-68
2022/03/11 10:45:25;;;;;;;10.98;6.00;;;;;;;;;;10308890;28;20053;-68
2022/03/11 10:50:36;;;;;;;19.05;8.32;;;;;;;;;;10312771;28;20043;-66
2022/03/11 10:55:42;;;;;;;13.02;5.95;;;;;;;;;;10311412;28;20343;-66
2022/03/11 11:00:46;;;;;;;14.77;6.68;;;;;;;;;;10312591;28;20050;-67
2022/03/11 11:05:49;;;;;;;10.15;5.60;;;;;;;;;;10312322;28;20375;-67
2022/03/11 11:10:51;;;;;;;10.25;6.18;;;;;;;;;;10324206;28;20101;-67
2022/03/11 11:15:57;;;;;;;14.98;6.57;;;;;;;;;;10323646;28;20039;-66
2022/03/11 11:21:04;;;;;;;14.25;6.38;;;;;;;;;;10326392;28;20355;-66
2022/03/11 11:26:10;;;;;;;14.45;6.70;;;;;;;;;;10312943;28;20055;-66
2022/03/11 11:31:17;;;;;;;13.45;7.32;;;;;;;;;;10313950;28;20069;-67
2022/03/11 11:36:34;;;;;;;12.63;6.07;;;;;;;;;;10313092;28;20058;-68
2022/03/11 11:41:37;;;;;;;14.35;7.50;;;;;;;;;;10312996;28;20054;-66
2022/03/11 11:46:41;;;;;;;13.55;6.18;;;;;;;;;;10311758;28;20363;-67
2022/03/11 11:51:57;;;;;;;12.48;5.95;;;;;;;;;;10312562;28;20245;-66
2022/03/11 11:57:02;;;;;;;9.77;5.78;;;;;;;;;;10312159;28;20050;-67
2022/03/11 12:02:35;;;;;;;17.30;6.22;;;;;;;;;;10311567;28;20054;-65
2022/03/11 12:07:48;;;;;;;8.30;4.93;;;;;;;;;;10312178;28;20368;-67
2022/03/11 12:13:00;;;;;;;13.00;6.15;;;;;;;;;;10323204;28;20355;-67
2022/03/11 12:18:04;;;;;;;14.90;6.65;;;;;;;;;;10365205;28;20041;-66
2022/03/11 12:23:08;;;;;;;9.30;5.75;;;;;;;;;;10323608;28;20043;-67
2022/03/11 12:28:13;;;;;;;9.30;5.93;;;;;;;;;;10311636;28;20065;-66
2022/03/11 12:33:18;;;;;;;12.95;5.40;;;;;;;;;;10309683;28;20058;-66
2022/03/11 12:38:22;;;;;;;20.13;6.38;;;;;;;;;;10307982;28;20059;-65
2022/03/11 12:43:24;;;;;;;13.65;5.40;;;;;;;;;;10308826;28;20102;-66
2022/03/11 12:48:30;;;;;;;12.05;6.18;;;;;;;;;;10310343;28;20245;-66
2022/03/11 12:53:33;;;;;;;11.52;6.10;;;;;;;;;;10323766;28;20038;-65
2022/03/11 12:58:36;;;;;;;12.65;6.60;;;;;;;;;;10317371;28;20046;-65
2022/03/11 13:03:41;;;;;;;12.20;5.85;;;;;;;;;;10315748;28;20046;-65
2022/03/11 13:08:45;;;;;;;14.82;6.43;;;;;;;;;;10277643;28;20059;-65
2022/03/11 13:13:49;;;;;;;28.40;14.88;;;;;;;;;;10329153;28;20383;-65
2022/03/11 13:18:53;;;;;;;15.23;6.77;;;;;;;;;;10341995;28;20471;-65
2022/03/11 13:23:57;;;;;;;13.68;7.85;;;;;;;;;;10314845;28;20086;-66
2022/03/11 13:29:00;;;;;;;15.82;5.82;;;;;;;;;;10317328;28;20102;-68
2022/03/11 13:34:10;;;;;;;10.82;6.80;;;;;;;;;;10314729;28;20270;-69
2022/03/11 13:39:14;;;;;;;19.27;6.05;;;;;;;;;;10318400;28;20062;-69
2022/03/11 13:44:23;;;;;;;16.30;6.90;;;;;;;;;;10333544;28;20054;-67
2022/03/11 13:49:38;;;;;;;17.30;5.95;;;;;;;;;;10319030;28;20043;-65
2022/03/11 13:54:43;;;;;;;16.10;7.17;;;;;;;;;;10317672;28;20035;-69
2022/03/11 13:59:47;;;;;;;14.38;5.85;;;;;;;;;;10316522;28;20042;-67
2022/03/11 14:05:09;;;;;;;13.43;6.05;;;;;;;;;;10290225;28;20049;-69
2022/03/11 14:10:15;;;;;;;15.55;6.53;;;;;;;;;;10330715;28;20053;-69
2022/03/11 14:15:31;;;;;;;13.35;7.18;;;;;;;;;;10316003;28;20074;-70
2022/03/11 14:20:35;;;;;;;16.50;7.20;;;;;;;;;;10316498;28;20334;-68
2022/03/11 14:25:38;;;;;;;17.13;8.40;;;;;;;;;;10316301;28;20043;-69
2022/03/11 14:30:42;;;;;;;12.52;6.45;;;;;;;;;;10315697;28;20050;-68
2022/03/11 14:35:46;;;;;;;11.30;5.57;;;;;;;;;;10313791;28;20049;-67
2022/03/11 14:40:48;;;;;;;14.23;7.13;;;;;;;;;;10316135;28;20069;-68
2022/03/11 14:45:51;;;;;;;13.50;6.35;;;;;;;;;;10314655;28;20102;-66
2022/03/11 14:50:55;;;;;;;13.25;7.35;;;;;;;;;;10312604;28;20046;-67
2022/03/11 14:56:01;;;;;;;15.32;9.13;;;;;;;;;;10313428;28;20053;-68
2022/03/11 15:01:04;;;;;;;13.18;8.10;;;;;;;;;;10313783;28;20057;-67
2022/03/11 15:06:07;;;;;;;13.80;7.07;;;;;;;;;;10313876;28;20046;-67
2022/03/11 15:11:10;;;;;;;16.52;7.93;;;;;;;;;;10330512;28;20268;-67
2022/03/11 15:16:12;;;;;;;23.35;8.25;;;;;;;;;;10313951;28;20057;-68
2022/03/11 15:21:17;;;;;;;12.52;6.18;;;;;;;;;;10313635;28;20050;-66
2022/03/11 15:26:19;;;;;;;17.30;7.13;;;;;;;;;;10312560;28;20097;-66
2022/03/11 15:31:21;;;;;;;13.98;6.13;;;;;;;;;;10314247;28;20047;-66
2022/03/11 15:36:25;;;;;;;9.55;5.53;;;;;;;;;;10312731;28;20055;-66
2022/03/11 15:41:28;;;;;;;15.98;6.40;;;;;;;;;;10312477;28;20074;-65
2022/03/11 15:46:30;;;;;;;22.23;9.55;;;;;;;;;;10318705;28;20046;-66
2022/03/11 15:51:34;;;;;;;14.55;6.82;;;;;;;;;;10308828;28;20337;-65
2022/03/11 15:56:37;;;;;;;26.75;9.82;;;;;;;;;;10312542;28;20089;-67
2022/03/11 16:01:40;;;;;;;42.03;15.98;;;;;;;;;;10312852;28;20046;-66
2022/03/11 16:06:44;;;;;;;26.75;11.40;;;;;;;;;;10307647;28;20058;-66
2022/03/11 16:11:46;;;;;;;28.40;13.18;;;;;;;;;;10312611;28;20073;-67
2022/03/11 16:16:49;;;;;;;26.73;12.63;;;;;;;;;;10312069;28;20050;-67
2022/03/11 16:21:52;;;;;;;32.97;12.18;;;;;;;;;;10311975;28;20210;-66
2022/03/11 16:26:55;;;;;;;47.25;16.05;;;;;;;;;;10310520;28;20113;-67
2022/03/11 16:31:57;;;;;;;36.25;14.35;;;;;;;;;;10318520;28;20062;-68
2022/03/11 16:37:01;;;;;;;39.10;14.80;;;;;;;;;;10319490;28;20322;-66
2022/03/11 16:42:05;;;;;;;22.58;10.00;;;;;;;;;;10311894;28;20063;-66
2022/03/11 16:47:09;;;;;;;25.75;11.43;;;;;;;;;;10318643;28;20363;-67
2022/03/11 16:52:14;;;;;;;41.30;15.65;;;;;;;;;;10318085;28;20261;-66
2022/03/11 16:57:16;;;;;;;33.80;12.02;;;;;;;;;;10318301;28;20123;-67
2022/03/11 17:02:19;;;;;;;48.42;16.00;;;;;;;;;;10308869;28;20237;-68
2022/03/11 17:07:22;;;;;;;65.97;21.20;;;;;;;;;;10307123;28;20050;-67
2022/03/11 17:12:25;;;;;;;52.47;18.90;;;;;;;;;;10318201;28;20050;-67
2022/03/11 17:17:27;;;;;;;60.33;22.83;;;;;;;;;;10317490;28;20085;-67
2022/03/11 17:22:32;;;;;;;104.93;27.95;;;;;;;;;;10317394;28;20038;-66
2022/03/11 17:27:34;;;;;;;61.28;17.52;;;;;;;;;;10316959;28;20043;-67
2022/03/11 17:32:37;;;;;;;55.25;15.95;;;;;;;;;;10316999;28;20338;-68
2022/03/11 17:37:41;;;;;;;46.53;16.55;;;;;;;;;;10316880;28;20050;-67
2022/03/11 17:42:44;;;;;;;35.75;14.15;;;;;;;;;;10329428;28;20057;-67
2022/03/11 17:47:50;;;;;;;51.10;14.93;;;;;;;;;;10316023;28;20087;-68
2022/03/11 17:52:54;;;;;;;38.22;16.38;;;;;;;;;;10306437;28;20054;-67
2022/03/11 17:57:56;;;;;;;42.25;19.48;;;;;;;;;;10316810;28;20047;-67
2022/03/11 18:03:00;;;;;;;46.58;18.02;;;;;;;;;;10316112;28;20066;-67
2022/03/11 18:08:04;;;;;;;42.17;15.95;;;;;;;;;;10317117;28;20242;-67
2022/03/11 18:13:06;;;;;;;57.38;21.17;;;;;;;;;;10316613;28;20059;-67
2022/03/11 18:18:12;;;;;;;54.55;19.63;;;;;;;;;;10315888;28;20329;-68
2022/03/11 18:23:16;;;;;;;54.03;19.63;;;;;;;;;;10316179;28;20066;-67
2022/03/11 18:28:20;;;;;;;45.05;18.60;;;;;;;;;;10316060;28;20059;-68
2022/03/11 18:33:23;;;;;;;49.58;22.50;;;;;;;;;;10315927;28;20242;-67
2022/03/11 18:38:27;;;;;;;58.83;23.30;;;;;;;;;;10315672;28;20058;-67
2022/03/11 18:43:31;;;;;;;62.72;23.15;;;;;;;;;;10315556;28;20050;-68
2022/03/11 18:48:34;;;;;;;66.22;24.88;;;;;;;;;;10314180;28;20285;-66
2022/03/11 18:53:38;;;;;;;63.65;26.52;;;;;;;;;;10314245;28;20054;-69
2022/03/11 18:58:40;;;;;;;154.55;69.45;;;;;;;;;;10314449;28;20073;-67
2022/03/11 19:03:42;;;;;;;79.43;27.45;;;;;;;;;;10315136;28;20043;-67
2022/03/11 19:08:47;;;;;;;56.55;19.85;;;;;;;;;;10314690;28;20058;-68
2022/03/11 19:13:50;;;;;;;51.00;20.13;;;;;;;;;;10315000;28;20062;-68
2022/03/11 19:18:53;;;;;;;48.13;17.92;;;;;;;;;;10314616;28;20270;-68
2022/03/11 19:23:59;;;;;;;42.05;17.75;;;;;;;;;;10314971;28;20152;-67
2022/03/11 19:29:01;;;;;;;51.28;18.98;;;;;;;;;;10327179;28;20085;-67
2022/03/11 19:34:03;;;;;;;41.05;17.88;;;;;;;;;;10312229;28;20065;-67
2022/03/11 19:39:09;;;;;;;43.95;17.90;;;;;;;;;;10313423;28;20071;-67
2022/03/11 19:44:14;;;;;;;48.85;18.58;;;;;;;;;;10326185;28;20053;-69
2022/03/11 19:49:17;;;;;;;52.25;19.73;;;;;;;;;;10312635;28;20050;-67
2022/03/11 19:54:21;;;;;;;54.58;19.50;;;;;;;;;;10313276;28;20322;-67
2022/03/11 19:59:23;;;;;;;66.50;23.13;;;;;;;;;;10311885;28;20050;-66
2022/03/11 20:04:25;;;;;;;52.10;22.25;;;;;;;;;;10312745;28;20357;-69
2022/03/11 20:09:29;;;;;;;53.78;21.55;;;;;;;;;;10313421;28;20098;-66
2022/03/11 20:14:32;;;;;;;64.40;23.95;;;;;;;;;;10313012;28;20043;-66
2022/03/11 20:19:34;;;;;;;68.40;28.58;;;;;;;;;;10312730;28;20053;-68
2022/03/11 20:24:37;;;;;;;67.18;25.17;;;;;;;;;;10312663;28;20051;-68
2022/03/11 20:29:40;;;;;;;67.75;24.33;;;;;;;;;;10283927;28;20066;-67
2022/03/11 20:34:43;;;;;;;66.38;25.60;;;;;;;;;;10309271;28;20368;-66
2022/03/11 20:39:46;;;;;;;60.78;23.27;;;;;;;;;;10309066;28;20062;-67
2022/03/11 20:44:49;;;;;;;63.38;23.90;;;;;;;;;;10308662;28;20039;-68
2022/03/11 20:49:56;;;;;;;64.95;24.00;;;;;;;;;;10307617;28;20058;-67
2022/03/11 20:55:05;;;;;;;64.20;23.90;;;;;;;;;;10309362;28;20248;-67
2022/03/11 21:00:10;;;;;;;63.80;23.70;;;;;;;;;;10310723;28;20058;-66
2022/03/11 21:05:13;;;;;;;65.13;24.27;;;;;;;;;;10307639;28;20058;-67
2022/03/11 21:10:16;;;;;;;61.88;24.88;;;;;;;;;;10310555;28;20079;-66
2022/03/11 21:15:19;;;;;;;70.03;25.30;;;;;;;;;;10311627;28;20062;-67
2022/03/11 21:20:21;;;;;;;62.95;25.58;;;;;;;;;;10315609;28;20050;-68
2022/03/11 21:25:26;;;;;;;57.97;23.27;;;;;;;;;;10316581;28;20069;-68
2022/03/11 21:30:30;;;;;;;60.22;22.80;;;;;;;;;;10317424;28;20058;-67
2022/03/11 21:35:32;;;;;;;60.83;23.27;;;;;;;;;;10317377;28;20050;-65
2022/03/11 21:40:36;;;;;;;58.08;21.88;;;;;;;;;;10317021;28;20247;-66
2022/03/11 21:45:40;;;;;;;60.40;22.98;;;;;;;;;;10317230;28;20046;-67
2022/03/11 21:50:43;;;;;;;71.93;26.63;;;;;;;;;;10316623;28;20066;-67
2022/03/11 21:55:48;;;;;;;79.45;28.65;;;;;;;;;;10318140;28;20341;-67
2022/03/11 22:00:50;;;;;;;78.50;28.60;;;;;;;;;;10325155;28;20309;-67
2022/03/11 22:05:53;;;;;;;63.45;24.40;;;;;;;;;;10306441;28;20047;-67
2022/03/11 22:10:57;;;;;;;64.30;23.27;;;;;;;;;;10283328;28;20050;-66
2022/03/11 22:16:02;;;;;;;68.03;24.80;;;;;;;;;;10316902;28;20038;-67
2022/03/11 22:21:05;;;;;;;79.40;32.07;;;;;;;;;;10315471;28;20183;-66
2022/03/11 22:26:09;;;;;;;63.42;26.42;;;;;;;;;;10314587;28;20053;-67
2022/03/11 22:31:11;;;;;;;63.97;25.73;;;;;;;;;;10301094;28;20059;-67
2022/03/11 22:36:14;;;;;;;58.63;25.15;;;;;;;;;;10315354;28;20054;-67
2022/03/11 22:41:18;;;;;;;53.20;21.35;;;;;;;;;;10313984;28;20081;-68
2022/03/11 22:46:22;;;;;;;62.03;24.63;;;;;;;;;;10308121;28;20077;-67
2022/03/11 22:51:26;;;;;;;54.95;23.48;;;;;;;;;;10314240;28;20050;-67
2022/03/11 22:56:30;;;;;;;64.38;25.58;;;;;;;;;;10295478;28;20047;-67
2022/03/11 23:01:32;;;;;;;75.03;28.83;;;;;;;;;;10276148;28;20298;-67
2022/03/11 23:11:56;;;;;;;65.30;25.75;;;;;;;;;;10285312;28;20047;-67
2022/03/11 23:17:01;;;;;;;65.88;25.05;;;;;;;;;;10280126;28;20059;-67
2022/03/11 23:22:04;;;;;;;65.03;27.17;;;;;;;;;;10272789;28;20051;-67
2022/03/11 23:27:08;;;;;;;63.33;24.90;;;;;;;;;;10277813;28;20055;-66
2022/03/11 23:32:11;;;;;;;66.85;25.67;;;;;;;;;;10288275;28;20047;-66
2022/03/11 23:37:13;;;;;;;66.00;24.33;;;;;;;;;;10311113;28;20066;-68
2022/03/11 23:42:19;;;;;;;61.25;22.70;;;;;;;;;;10311562;28;20046;-67
2022/03/11 23:47:22;;;;;;;63.53;22.33;;;;;;;;;;10324754;28;20047;-67
2022/03/11 23:52:25;;;;;;;62.97;22.05;;;;;;;;;;10312938;28;20054;-68
2022/03/11 23:57:28;;;;;;;58.75;23.08;;;;;;;;;;10312281;28;20050;-68
